createdAt,value
2023-10-28T00:00:03.627Z,75.33
2023-10-28T00:00:39.000Z,76.00
2023-10-28T00:01:14.919Z,75.67
2023-10-28T00:01:51.481Z,75.00
2023-10-28T00:02:25.143Z,76.00
2023-10-28T00:02:58.621Z,76.00
2023-10-28T00:03:32.117Z,75.33
2023-10-28T00:04:06.220Z,75.00
2023-10-28T00:04:40.408Z,75.67
2023-10-28T00:05:13.791Z,76.00
2023-10-28T00:05:47.762Z,76.00
2023-10-28T00:06:21.033Z,76.00
2023-10-28T00:06:54.691Z,76.00
2023-10-28T00:07:27.950Z,75.67
2023-10-28T00:08:02.845Z,76.00
2023-10-28T00:08:37.541Z,76.00
2023-10-28T00:09:11.878Z,76.00
2023-10-28T00:09:45.468Z,75.33
2023-10-28T00:10:19.281Z,73.67
2023-10-28T00:10:52.971Z,72.00
2023-10-28T00:11:27.798Z,70.33
2023-10-28T00:12:01.603Z,70.00
2023-10-28T00:12:36.025Z,70.00
2023-10-28T00:13:10.244Z,70.67
2023-10-28T00:13:43.676Z,74.33
2023-10-28T00:14:20.754Z,81.33
2023-10-28T00:14:54.286Z,90.67
2023-10-28T00:15:29.288Z,92.67
2023-10-28T00:16:03.072Z,90.33
2023-10-28T00:16:37.836Z,88.67
2023-10-28T00:17:14.136Z,86.00
2023-10-28T00:17:48.814Z,80.67
2023-10-28T00:18:22.533Z,77.00
2023-10-28T00:18:56.097Z,75.00
2023-10-28T00:19:29.804Z,72.00
2023-10-28T00:20:06.482Z,67.33
2023-10-28T00:20:42.394Z,63.00
2023-10-28T00:21:19.064Z,60.00
2023-10-28T00:21:52.612Z,58.33
2023-10-28T00:22:26.260Z,56.33
2023-10-28T00:22:59.827Z,54.00
2023-10-28T00:23:33.342Z,52.00
2023-10-28T00:24:07.135Z,50.00
2023-10-28T00:24:42.850Z,50.33
2023-10-28T00:25:17.587Z,50.67
2023-10-28T00:25:52.031Z,51.00
2023-10-28T00:26:25.357Z,52.33
2023-10-28T00:26:59.530Z,53.67
2023-10-28T00:27:34.840Z,54.67
2023-10-28T00:28:08.325Z,55.00
2023-10-28T00:28:42.941Z,56.00
2023-10-28T00:29:16.506Z,56.67
2023-10-28T00:29:53.784Z,57.67
2023-10-28T00:30:31.038Z,59.00
2023-10-28T00:31:05.442Z,60.33
2023-10-28T00:31:42.502Z,61.67
2023-10-28T00:32:16.456Z,64.00
2023-10-28T00:32:51.578Z,66.67
2023-10-28T00:33:24.813Z,69.33
2023-10-28T00:33:58.434Z,72.00
2023-10-28T00:34:33.958Z,75.67
2023-10-28T00:35:09.928Z,81.33
2023-10-28T00:35:43.716Z,88.33
2023-10-28T00:36:20.610Z,93.33
2023-10-28T00:36:53.932Z,93.67
2023-10-28T00:37:27.651Z,98.00
2023-10-28T00:38:01.299Z,105.00
2023-10-28T00:38:35.547Z,109.67
2023-10-28T00:39:10.078Z,113.00
2023-10-28T00:39:44.908Z,114.67
2023-10-28T00:40:18.883Z,119.00
2023-10-28T00:40:52.351Z,123.00
2023-10-28T00:41:25.877Z,123.33
2023-10-28T00:42:02.509Z,128.67
2023-10-28T00:42:37.759Z,136.33
2023-10-28T00:43:12.168Z,139.33
2023-10-28T00:43:46.174Z,140.67
2023-10-28T00:44:19.816Z,136.67
2023-10-28T00:44:55.372Z,133.33
2023-10-28T00:45:29.499Z,133.33
2023-10-28T00:46:04.691Z,134.00
2023-10-28T00:46:39.779Z,134.00
2023-10-28T00:47:13.928Z,133.00
2023-10-28T00:47:54.974Z,134.33
2023-10-28T00:48:31.228Z,135.67
2023-10-28T00:49:06.836Z,135.00
2023-10-28T00:49:41.639Z,138.33
2023-10-28T00:50:18.137Z,143.67
2023-10-28T00:50:51.757Z,144.33
2023-10-28T00:51:25.292Z,150.00
2023-10-28T00:52:00.500Z,154.33
2023-10-28T00:52:34.880Z,153.00
2023-10-28T00:53:11.730Z,153.33
2023-10-28T00:53:45.666Z,151.67
2023-10-28T00:54:19.170Z,147.33
2023-10-28T00:54:54.401Z,144.33
2023-10-28T00:55:30.800Z,144.00
2023-10-28T00:56:05.270Z,144.00
2023-10-28T00:56:40.074Z,142.67
2023-10-28T00:57:13.715Z,142.00
2023-10-28T00:57:48.887Z,141.33
2023-10-28T00:58:24.003Z,141.00
2023-10-28T00:59:03.589Z,140.67
2023-10-28T00:59:37.235Z,140.00
2023-10-28T01:00:16.222Z,142.67
2023-10-28T01:02:05.746Z,155.00
2023-10-28T01:02:41.900Z,154.00
2023-10-28T01:03:19.562Z,152.33
2023-10-28T01:03:53.249Z,153.00
2023-10-28T01:04:27.209Z,154.00
2023-10-28T01:05:01.077Z,153.33
2023-10-28T01:05:35.582Z,152.33
2023-10-28T01:06:13.625Z,151.67
2023-10-28T01:06:47.609Z,151.33
2023-10-28T01:07:22.088Z,152.33
2023-10-28T01:07:55.694Z,152.67
2023-10-28T01:08:29.424Z,152.00
2023-10-28T01:09:03.155Z,151.33
2023-10-28T01:09:49.426Z,150.67
2023-10-28T01:10:30.280Z,150.00
2023-10-28T01:11:04.221Z,149.33
2023-10-28T01:11:40.827Z,149.00
2023-10-28T01:12:15.228Z,149.00
2023-10-28T01:12:49.498Z,149.00
2023-10-28T01:13:22.888Z,148.33
2023-10-28T01:13:56.260Z,148.00
2023-10-28T01:14:32.713Z,146.67
2023-10-28T01:15:07.792Z,145.33
2023-10-28T01:15:41.665Z,144.00
2023-10-28T01:16:15.412Z,143.00
2023-10-28T01:16:52.728Z,142.00
2023-10-28T01:17:31.002Z,139.33
2023-10-28T01:18:05.319Z,134.33
2023-10-28T01:18:41.896Z,133.00
2023-10-28T01:19:16.630Z,133.00
2023-10-28T01:19:50.201Z,134.00
2023-10-28T01:20:24.050Z,136.00
2023-10-28T01:20:57.353Z,140.00
2023-10-28T01:21:30.723Z,141.67
2023-10-28T01:22:07.826Z,142.67
2023-10-28T01:22:41.132Z,144.00
2023-10-28T01:23:15.420Z,145.33
2023-10-28T01:23:49.012Z,147.33
2023-10-28T01:24:22.642Z,149.67
2023-10-28T01:24:56.144Z,150.67
2023-10-28T01:25:32.596Z,151.00
2023-10-28T01:26:06.164Z,151.67
2023-10-28T01:26:40.975Z,152.67
2023-10-28T01:27:14.379Z,155.33
2023-10-28T01:27:48.193Z,160.00
2023-10-28T01:28:21.755Z,159.33
2023-10-28T01:28:57.226Z,158.00
2023-10-28T01:29:30.946Z,157.00
2023-10-28T01:30:06.240Z,157.00
2023-10-28T01:30:43.536Z,156.67
2023-10-28T01:31:19.140Z,157.00
2023-10-28T01:31:52.985Z,158.00
2023-10-28T01:32:26.299Z,158.00
2023-10-28T01:32:59.896Z,158.00
2023-10-28T01:33:33.528Z,158.00
2023-10-28T01:34:08.120Z,158.00
2023-10-28T01:34:51.713Z,157.00
2023-10-28T01:35:25.754Z,156.67
2023-10-28T01:35:59.337Z,155.33
2023-10-28T01:36:33.274Z,155.00
2023-10-28T01:37:06.840Z,155.00
2023-10-28T01:37:41.813Z,155.00
2023-10-28T01:38:15.220Z,154.33
2023-10-28T01:38:48.613Z,152.67
2023-10-28T01:39:22.176Z,151.00
2023-10-28T01:39:55.808Z,149.67
2023-10-28T01:40:29.332Z,148.00
2023-10-28T01:41:05.268Z,145.33
2023-10-28T01:41:39.228Z,141.67
2023-10-28T01:42:14.514Z,137.33
2023-10-28T01:42:48.587Z,134.67
2023-10-28T01:43:22.466Z,134.33
2023-10-28T01:43:56.035Z,134.67
2023-10-28T01:44:29.359Z,136.00
2023-10-28T01:45:02.990Z,137.00
2023-10-28T01:45:36.981Z,139.00
2023-10-28T01:46:10.657Z,146.33
2023-10-28T01:46:44.340Z,156.33
2023-10-28T01:47:18.156Z,156.33
2023-10-28T01:47:51.891Z,155.00
2023-10-28T01:48:25.432Z,155.33
2023-10-28T01:48:58.931Z,160.33
2023-10-28T01:49:32.431Z,172.00
2023-10-28T01:50:12.965Z,184.00
2023-10-28T01:50:46.920Z,193.67
2023-10-28T01:51:20.606Z,195.67
2023-10-28T01:51:54.335Z,197.33
2023-10-28T01:52:29.563Z,192.67
2023-10-28T01:53:04.168Z,185.00
2023-10-28T01:53:37.769Z,182.00
2023-10-28T01:54:12.432Z,180.33
2023-10-28T01:54:45.711Z,185.67
2023-10-28T01:55:19.486Z,193.00
2023-10-28T01:55:53.204Z,195.33
2023-10-28T01:56:29.457Z,195.33
2023-10-28T01:57:08.292Z,193.33
2023-10-28T01:57:42.064Z,188.67
2023-10-28T01:58:15.941Z,187.33
2023-10-28T01:58:49.578Z,186.00
2023-10-28T01:59:22.924Z,185.33
2023-10-28T01:59:56.663Z,184.33
2023-10-28T02:00:32.916Z,184.00
2023-10-28T02:01:06.660Z,185.00
2023-10-28T02:01:41.033Z,185.67
2023-10-28T02:02:14.610Z,185.00
2023-10-28T02:02:48.052Z,184.33
2023-10-28T02:03:24.080Z,184.00
2023-10-28T02:03:59.237Z,183.67
2023-10-28T02:04:34.519Z,182.67
2023-10-28T02:05:09.850Z,177.00
2023-10-28T02:05:44.542Z,169.33
2023-10-28T02:06:18.361Z,170.33
2023-10-28T02:06:51.821Z,173.67
2023-10-28T02:07:26.078Z,185.67
2023-10-28T02:08:02.641Z,186.00
2023-10-28T02:08:36.230Z,179.33
2023-10-28T02:09:11.988Z,162.00
2023-10-28T02:09:45.766Z,154.67
2023-10-28T02:10:24.027Z,147.33
2023-10-28T02:10:57.723Z,145.67
2023-10-28T02:11:33.587Z,142.33
2023-10-28T02:12:07.852Z,137.33
2023-10-28T02:12:41.580Z,137.33
2023-10-28T02:13:16.026Z,141.00
2023-10-28T02:13:49.992Z,131.67
2023-10-28T02:14:24.341Z,124.33
2023-10-28T02:14:57.653Z,128.00
2023-10-28T02:15:31.400Z,132.33
2023-10-28T02:16:05.578Z,136.33
2023-10-28T02:16:40.088Z,142.00
2023-10-28T02:17:14.282Z,152.00
2023-10-28T02:17:47.750Z,152.33
2023-10-28T02:18:24.061Z,149.00
2023-10-28T02:18:59.875Z,150.00
2023-10-28T02:19:33.960Z,168.33
2023-10-28T02:20:08.394Z,174.00
2023-10-28T02:20:42.323Z,169.00
2023-10-28T02:21:15.891Z,165.33
2023-10-28T02:22:02.802Z,162.33
2023-10-28T02:22:44.059Z,162.00
2023-10-28T02:23:17.601Z,161.00
2023-10-28T02:23:51.082Z,159.67
2023-10-28T02:24:24.322Z,155.00
2023-10-28T02:24:57.622Z,151.67
2023-10-28T02:25:30.891Z,151.00
2023-10-28T02:26:04.604Z,150.33
2023-10-28T02:26:37.965Z,150.00
2023-10-28T02:27:12.759Z,178.00
2023-10-28T02:27:46.199Z,192.33
2023-10-28T02:28:19.697Z,193.33
2023-10-28T02:28:53.326Z,189.33
2023-10-28T02:29:26.896Z,181.00
2023-10-28T02:30:00.507Z,177.00
2023-10-28T02:30:37.215Z,174.67
2023-10-28T02:31:11.136Z,167.67
2023-10-28T02:31:44.727Z,164.67
2023-10-28T02:32:18.756Z,161.67
2023-10-28T02:32:52.648Z,159.00
2023-10-28T02:33:26.067Z,157.67
2023-10-28T02:33:59.779Z,156.33
2023-10-28T02:34:33.526Z,157.00
2023-10-28T02:35:07.752Z,158.33
2023-10-28T02:35:41.187Z,175.67
2023-10-28T02:36:14.475Z,197.67
2023-10-28T02:36:48.581Z,210.33
2023-10-28T02:37:24.223Z,219.33
2023-10-28T02:37:57.921Z,225.33
2023-10-28T02:38:32.113Z,232.67
2023-10-28T02:39:07.345Z,234.00
2023-10-28T02:39:41.206Z,237.67
2023-10-28T02:40:15.022Z,238.00
2023-10-28T02:40:49.417Z,237.67
2023-10-28T02:41:23.065Z,238.33
2023-10-28T02:41:56.627Z,235.00
2023-10-28T02:42:30.290Z,235.33
2023-10-28T02:43:06.324Z,237.33
2023-10-28T02:43:40.942Z,237.67
2023-10-28T02:44:14.815Z,239.67
2023-10-28T02:44:48.442Z,242.67
2023-10-28T02:45:22.268Z,247.00
2023-10-28T02:45:55.826Z,249.00
2023-10-28T02:46:29.308Z,250.00
2023-10-28T02:47:02.995Z,249.67
2023-10-28T02:47:36.443Z,251.00
2023-10-28T02:48:10.118Z,256.33
2023-10-28T02:48:43.666Z,270.67
2023-10-28T02:49:17.316Z,286.00
2023-10-28T02:49:51.117Z,283.67
2023-10-28T02:50:24.631Z,272.33
2023-10-28T02:51:07.548Z,262.00
2023-10-28T02:51:41.664Z,253.33
2023-10-28T02:52:18.128Z,251.33
2023-10-28T02:52:52.645Z,250.00
2023-10-28T02:53:26.136Z,247.00
2023-10-28T02:54:00.438Z,244.00
2023-10-28T02:54:37.720Z,240.00
2023-10-28T02:55:12.516Z,234.67
2023-10-28T02:55:48.804Z,231.00
2023-10-28T02:56:22.561Z,229.67
2023-10-28T02:56:56.092Z,224.00
2023-10-28T02:57:29.402Z,216.67
2023-10-28T02:58:03.239Z,209.33
2023-10-28T02:58:37.063Z,207.00
2023-10-28T02:59:11.858Z,206.33
2023-10-28T02:59:46.332Z,208.67
2023-10-28T03:00:20.167Z,208.67
2023-10-28T03:00:58.361Z,203.67
2023-10-28T03:01:37.874Z,199.00
2023-10-28T03:02:12.406Z,198.67
2023-10-28T03:02:46.088Z,201.33
2023-10-28T03:03:19.864Z,204.00
2023-10-28T03:03:53.646Z,205.67
2023-10-28T03:04:26.962Z,205.33
2023-10-28T03:05:00.389Z,205.33
2023-10-28T03:05:33.932Z,206.33
2023-10-28T03:06:07.617Z,207.00
2023-10-28T03:06:41.164Z,208.00
2023-10-28T03:07:14.814Z,207.67
2023-10-28T03:07:48.398Z,208.00
2023-10-28T03:08:22.517Z,207.67
2023-10-28T03:08:56.271Z,208.00
2023-10-28T03:09:31.775Z,208.67
2023-10-28T03:10:06.045Z,209.00
2023-10-28T03:10:40.236Z,209.00
2023-10-28T03:11:13.862Z,208.67
2023-10-28T03:11:47.430Z,208.00
2023-10-28T03:12:21.010Z,208.67
2023-10-28T03:12:57.229Z,210.00
2023-10-28T03:13:30.870Z,212.00
2023-10-28T03:14:05.499Z,214.33
2023-10-28T03:14:43.633Z,216.67
2023-10-28T03:15:17.083Z,217.00
2023-10-28T03:15:50.734Z,217.67
2023-10-28T03:16:24.178Z,220.00
2023-10-28T03:16:57.718Z,222.00
2023-10-28T03:17:31.241Z,222.00
2023-10-28T03:18:04.967Z,222.00
2023-10-28T03:18:39.453Z,222.00
2023-10-28T03:19:15.938Z,221.33
2023-10-28T03:19:49.598Z,221.00
2023-10-28T03:20:23.523Z,220.00
2023-10-28T03:20:58.139Z,220.00
2023-10-28T03:21:31.751Z,220.00
2023-10-28T03:22:05.815Z,220.00
2023-10-28T03:22:43.350Z,220.33
2023-10-28T03:23:19.524Z,221.33
2023-10-28T03:23:53.160Z,222.67
2023-10-28T03:24:30.166Z,224.00
2023-10-28T03:25:04.574Z,227.33
2023-10-28T03:25:39.344Z,231.33
2023-10-28T03:26:13.937Z,240.00
2023-10-28T03:26:47.187Z,243.67
2023-10-28T03:27:20.470Z,244.67
2023-10-28T03:27:54.207Z,246.67
2023-10-28T03:28:29.293Z,246.00
2023-10-28T03:29:02.884Z,244.00
2023-10-28T03:29:36.626Z,242.67
2023-10-28T03:30:11.371Z,242.00
2023-10-28T03:30:44.660Z,242.33
2023-10-28T03:31:18.245Z,243.67
2023-10-28T03:31:53.701Z,242.33
2023-10-28T03:32:30.501Z,241.00
2023-10-28T03:33:04.188Z,240.00
2023-10-28T03:33:39.711Z,239.33
2023-10-28T03:34:13.070Z,238.00
2023-10-28T03:34:47.183Z,238.00
2023-10-28T03:35:21.687Z,237.00
2023-10-28T03:35:58.515Z,237.00
2023-10-28T03:36:31.794Z,237.00
2023-10-28T03:37:07.075Z,236.00
2023-10-28T03:37:43.489Z,236.00
2023-10-28T03:38:17.153Z,236.00
2023-10-28T03:38:50.708Z,236.00
2023-10-28T03:39:24.386Z,236.00
2023-10-28T03:39:57.771Z,237.00
2023-10-28T03:40:31.422Z,237.00
2023-10-28T03:41:12.914Z,237.33
2023-10-28T03:41:46.421Z,238.33
2023-10-28T03:42:20.630Z,239.67
2023-10-28T03:42:56.256Z,240.00
2023-10-28T03:43:29.740Z,240.00
2023-10-28T03:44:03.795Z,240.00
2023-10-28T03:44:37.201Z,240.33
2023-10-28T03:45:12.267Z,242.00
2023-10-28T03:45:45.764Z,245.00
2023-10-28T03:46:22.407Z,248.33
2023-10-28T03:46:58.224Z,255.67
2023-10-28T03:47:34.708Z,259.33
2023-10-28T03:48:08.303Z,262.00
2023-10-28T03:48:41.868Z,263.67
2023-10-28T03:49:15.419Z,262.67
2023-10-28T03:49:48.980Z,261.33
2023-10-28T03:50:22.804Z,260.33
2023-10-28T03:51:07.092Z,260.00
2023-10-28T03:51:41.814Z,260.33
2023-10-28T03:52:15.691Z,262.00
2023-10-28T03:52:49.375Z,263.00
2023-10-28T03:53:22.931Z,264.67
2023-10-28T03:53:56.481Z,264.00
2023-10-28T03:54:30.694Z,263.67
2023-10-28T03:55:08.543Z,264.00
2023-10-28T03:55:42.298Z,264.00
2023-10-28T03:56:15.829Z,264.00
2023-10-28T03:56:49.374Z,265.33
2023-10-28T03:57:22.916Z,265.00
2023-10-28T03:57:56.998Z,265.33
2023-10-28T03:58:30.312Z,265.33
2023-10-28T03:59:04.198Z,265.00
2023-10-28T03:59:37.814Z,265.00
2023-10-28T04:00:12.758Z,264.67
2023-10-28T04:00:46.648Z,264.67
2023-10-28T04:01:20.252Z,264.33
2023-10-28T04:01:54.228Z,264.00
2023-10-28T04:02:30.149Z,264.00
2023-10-28T04:03:03.733Z,264.00
2023-10-28T04:03:37.397Z,264.00
2023-10-28T04:04:10.940Z,264.00
2023-10-28T04:04:44.606Z,264.00
2023-10-28T04:05:21.248Z,264.00
2023-10-28T04:05:55.460Z,263.33
2023-10-28T04:06:28.747Z,263.33
2023-10-28T04:07:04.739Z,263.00
2023-10-28T04:07:37.972Z,263.00
2023-10-28T04:08:12.269Z,263.00
2023-10-28T04:08:45.865Z,264.00
2023-10-28T04:09:19.959Z,264.00
2023-10-28T04:09:54.187Z,264.00
2023-10-28T04:10:28.878Z,264.00
2023-10-28T04:11:02.394Z,264.00
2023-10-28T04:11:35.892Z,264.00
2023-10-28T04:12:10.473Z,264.33
2023-10-28T04:12:46.950Z,265.00
2023-10-28T04:13:20.565Z,265.00
2023-10-28T04:13:54.194Z,265.00
2023-10-28T04:14:27.793Z,265.33
2023-10-28T04:15:01.372Z,266.00
2023-10-28T04:15:36.566Z,266.00
2023-10-28T04:16:10.310Z,266.00
2023-10-28T04:16:43.984Z,266.67
2023-10-28T04:17:20.549Z,267.00
2023-10-28T04:17:54.836Z,267.00
2023-10-28T04:18:30.458Z,267.00
2023-10-28T04:19:04.623Z,267.00
2023-10-28T04:19:39.876Z,267.00
2023-10-28T04:20:13.210Z,267.00
2023-10-28T04:20:47.040Z,266.33
2023-10-28T04:21:20.891Z,266.00
2023-10-28T04:21:55.576Z,266.00
2023-10-28T04:22:30.333Z,265.67
2023-10-28T04:23:04.392Z,264.33
2023-10-28T04:23:38.121Z,264.00
2023-10-28T04:24:11.922Z,264.00
2023-10-28T04:24:48.348Z,264.00
2023-10-28T04:25:21.932Z,264.00
2023-10-28T04:25:55.510Z,264.00
2023-10-28T04:26:29.147Z,264.00
2023-10-28T04:27:02.558Z,264.67
2023-10-28T04:27:36.479Z,265.67
2023-10-28T04:28:09.851Z,266.00
2023-10-28T04:28:43.408Z,266.67
2023-10-28T04:29:17.140Z,267.00
2023-10-28T04:29:51.832Z,267.00
2023-10-28T04:30:25.572Z,267.00
2023-10-28T04:31:01.032Z,267.00
2023-10-28T04:31:34.265Z,267.00
2023-10-28T04:32:08.527Z,267.00
2023-10-28T04:32:42.197Z,267.00
2023-10-28T04:33:16.875Z,267.00
2023-10-28T04:33:50.343Z,267.00
2023-10-28T04:34:23.887Z,267.00
2023-10-28T04:35:01.082Z,267.00
2023-10-28T04:35:44.383Z,267.00
2023-10-28T04:36:17.698Z,267.00
2023-10-28T04:36:51.476Z,268.00
2023-10-28T04:37:26.185Z,268.00
2023-10-28T04:37:59.733Z,268.67
2023-10-28T04:38:33.087Z,269.00
2023-10-28T04:39:06.638Z,269.00
2023-10-28T04:39:42.209Z,269.67
2023-10-28T04:40:17.155Z,270.00
2023-10-28T04:40:51.562Z,270.00
2023-10-28T04:41:25.152Z,270.33
2023-10-28T04:41:58.920Z,271.33
2023-10-28T04:42:33.273Z,272.00
2023-10-28T04:43:07.146Z,272.67
2023-10-28T04:43:42.708Z,273.00
2023-10-28T04:44:16.338Z,273.00
2023-10-28T04:44:53.520Z,273.67
2023-10-28T04:45:27.093Z,275.00
2023-10-28T04:46:06.656Z,275.33
2023-10-28T04:46:41.742Z,277.67
2023-10-28T04:47:20.284Z,278.67
2023-10-28T04:47:53.925Z,281.00
2023-10-28T04:48:30.471Z,282.67
2023-10-28T04:49:03.778Z,284.00
2023-10-28T04:49:38.401Z,284.00
2023-10-28T04:50:13.172Z,284.00
2023-10-28T04:50:46.866Z,284.00
2023-10-28T04:51:20.561Z,284.00
2023-10-28T04:51:55.573Z,284.67
2023-10-28T04:52:29.268Z,285.00
2023-10-28T04:53:02.592Z,286.00
2023-10-28T04:53:36.158Z,287.00
2023-10-28T04:54:09.769Z,287.00
2023-10-28T04:54:43.351Z,287.00
2023-10-28T04:55:17.720Z,287.67
2023-10-28T04:55:56.343Z,287.00
2023-10-28T04:56:31.547Z,287.00
2023-10-28T04:57:05.271Z,287.00
2023-10-28T04:57:39.543Z,287.00
2023-10-28T04:58:13.440Z,286.00
2023-10-28T04:58:47.037Z,286.00
2023-10-28T04:59:22.861Z,285.67
2023-10-28T04:59:56.394Z,285.00
2023-10-28T05:00:31.475Z,285.67
2023-10-28T05:01:06.085Z,286.67
2023-10-28T05:01:40.534Z,287.00
2023-10-28T05:02:14.345Z,285.67
2023-10-28T05:02:50.831Z,285.00
2023-10-28T05:03:25.476Z,284.33
2023-10-28T05:03:59.349Z,284.00
2023-10-28T05:04:32.729Z,284.00
2023-10-28T05:05:07.031Z,284.00
2023-10-28T05:05:41.257Z,282.67
2023-10-28T05:06:14.944Z,279.67
2023-10-28T05:06:48.430Z,275.33
2023-10-28T05:07:21.998Z,272.33
2023-10-28T05:07:55.634Z,272.00
2023-10-28T05:08:29.801Z,270.00
2023-10-28T05:09:04.250Z,267.67
2023-10-28T05:09:38.029Z,265.33
2023-10-28T05:10:12.208Z,266.00
2023-10-28T05:10:48.355Z,267.00
2023-10-28T05:11:21.945Z,265.67
2023-10-28T05:12:00.057Z,265.67
2023-10-28T05:12:36.079Z,267.00
2023-10-28T05:13:11.639Z,267.00
2023-10-28T05:13:44.917Z,268.00
2023-10-28T05:14:18.542Z,268.33
2023-10-28T05:14:52.176Z,270.00
2023-10-28T05:15:25.711Z,273.67
2023-10-28T05:16:00.044Z,276.67
2023-10-28T05:16:34.308Z,278.00
2023-10-28T05:17:08.906Z,279.00
2023-10-28T05:17:42.843Z,280.67
2023-10-28T05:18:16.774Z,281.33
2023-10-28T05:18:50.797Z,282.00
2023-10-28T05:19:24.251Z,282.00
2023-10-28T05:19:57.773Z,282.00
2023-10-28T05:20:35.061Z,282.00
2023-10-28T05:21:08.659Z,281.00
2023-10-28T05:21:42.488Z,281.00
2023-10-28T05:22:18.436Z,281.00
2023-10-28T05:22:52.186Z,281.00
2023-10-28T05:23:26.007Z,281.00
2023-10-28T05:24:00.045Z,281.00
2023-10-28T05:24:34.587Z,281.00
2023-10-28T05:25:12.909Z,281.00
2023-10-28T05:25:47.290Z,281.00
2023-10-28T05:26:20.708Z,281.00
2023-10-28T05:26:56.425Z,281.00
2023-10-28T05:27:29.863Z,280.00
2023-10-28T05:28:03.612Z,280.00
2023-10-28T05:28:37.087Z,279.00
2023-10-28T05:29:11.065Z,279.00
2023-10-28T05:29:44.659Z,278.00
2023-10-28T05:30:18.526Z,278.00
2023-10-28T05:30:52.092Z,277.00
2023-10-28T05:31:28.994Z,276.67
2023-10-28T05:32:02.744Z,276.00
2023-10-28T05:32:41.319Z,276.00
2023-10-28T05:33:15.219Z,274.67
2023-10-28T05:33:48.882Z,274.00
2023-10-28T05:34:24.578Z,274.00
2023-10-28T05:35:00.409Z,274.00
2023-10-28T05:35:33.699Z,274.33
2023-10-28T05:36:07.989Z,275.67
2023-10-28T05:36:41.654Z,276.67
2023-10-28T05:37:15.253Z,278.00
2023-10-28T05:37:49.157Z,278.67
2023-10-28T05:38:22.641Z,280.33
2023-10-28T05:38:56.359Z,281.67
2023-10-28T05:39:29.885Z,283.00
2023-10-28T05:40:04.165Z,283.00
2023-10-28T05:40:37.743Z,283.67
2023-10-28T05:41:11.645Z,284.00
2023-10-28T05:41:45.386Z,283.00
2023-10-28T05:42:19.135Z,283.00
2023-10-28T05:42:52.412Z,283.00
2023-10-28T05:43:26.508Z,283.00
2023-10-28T05:44:01.174Z,282.00
2023-10-28T05:44:36.455Z,282.00
2023-10-28T05:45:11.683Z,282.00
2023-10-28T05:45:45.544Z,282.00
2023-10-28T05:46:22.727Z,282.00
2023-10-28T05:47:00.536Z,282.00
2023-10-28T05:47:34.165Z,284.00
2023-10-28T05:48:10.474Z,285.33
2023-10-28T05:48:44.429Z,285.00
2023-10-28T05:49:18.234Z,284.67
2023-10-28T05:49:51.455Z,284.00
2023-10-28T05:50:25.445Z,284.00
2023-10-28T05:50:59.121Z,283.67
2023-10-28T05:51:37.114Z,282.67
2023-10-28T05:52:10.969Z,282.00
2023-10-28T05:52:44.682Z,282.00
2023-10-28T05:53:19.067Z,282.00
2023-10-28T05:53:52.624Z,281.00
2023-10-28T05:54:26.894Z,280.00
2023-10-28T05:55:00.466Z,278.67
2023-10-28T05:55:33.696Z,277.33
2023-10-28T05:56:07.648Z,275.67
2023-10-28T05:56:43.971Z,273.67
2023-10-28T05:57:17.674Z,273.00
2023-10-28T05:57:51.145Z,272.00
2023-10-28T05:58:25.745Z,269.00
2023-10-28T05:58:59.932Z,267.00
2023-10-28T05:59:36.438Z,266.67
2023-10-28T06:00:11.797Z,265.00
2023-10-28T06:00:45.585Z,263.67
2023-10-28T06:01:19.141Z,261.00
2023-10-28T06:01:52.830Z,256.67
2023-10-28T06:02:26.632Z,255.67
2023-10-28T06:03:00.221Z,256.00
2023-10-28T06:03:33.550Z,255.67
2023-10-28T06:04:07.068Z,255.00
2023-10-28T06:04:43.318Z,254.67
2023-10-28T06:05:16.801Z,253.33
2023-10-28T06:05:53.547Z,253.00
2023-10-28T06:06:27.330Z,251.00
2023-10-28T06:07:00.967Z,251.00
2023-10-28T06:07:36.023Z,251.33
2023-10-28T06:08:09.604Z,251.00
2023-10-28T06:08:43.689Z,250.67
2023-10-28T06:09:22.137Z,250.00
2023-10-28T06:09:56.188Z,249.33
2023-10-28T06:10:29.570Z,248.00
2023-10-28T06:11:03.155Z,248.67
2023-10-28T06:11:36.488Z,249.00
2023-10-28T06:12:10.047Z,249.00
2023-10-28T06:12:43.725Z,249.00
2023-10-28T06:13:17.343Z,248.67
2023-10-28T06:13:52.066Z,249.00
2023-10-28T06:14:25.773Z,248.33
2023-10-28T06:14:59.474Z,248.00
2023-10-28T06:15:38.243Z,246.67
2023-10-28T06:16:11.963Z,246.00
2023-10-28T06:16:47.472Z,246.33
2023-10-28T06:17:24.078Z,246.67
2023-10-28T06:17:58.445Z,246.00
2023-10-28T06:18:32.096Z,246.00
2023-10-28T06:19:08.433Z,246.00
2023-10-28T06:19:42.258Z,246.33
2023-10-28T06:20:16.108Z,247.00
2023-10-28T06:20:50.052Z,247.00
2023-10-28T06:21:24.278Z,247.00
2023-10-28T06:21:59.040Z,247.00
2023-10-28T06:22:33.816Z,247.00
2023-10-28T06:23:07.709Z,247.00
2023-10-28T06:23:42.223Z,247.00
2023-10-28T06:24:15.712Z,247.00
2023-10-28T06:24:50.561Z,247.00
2023-10-28T06:25:24.207Z,247.00
2023-10-28T06:25:58.060Z,247.00
2023-10-28T06:26:31.613Z,246.67
2023-10-28T06:27:09.793Z,246.00
2023-10-28T06:27:45.164Z,247.00
2023-10-28T06:28:19.421Z,247.00
2023-10-28T06:28:53.033Z,247.00
2023-10-28T06:29:28.435Z,247.00
2023-10-28T06:30:02.417Z,247.00
2023-10-28T06:30:36.017Z,247.00
2023-10-28T06:31:09.729Z,247.00
2023-10-28T06:31:45.192Z,247.00
2023-10-28T06:32:18.974Z,247.00
2023-10-28T06:32:52.726Z,247.00
2023-10-28T06:33:26.038Z,247.00
2023-10-28T06:34:01.968Z,247.00
2023-10-28T06:34:35.372Z,247.00
2023-10-28T06:35:09.605Z,247.00
2023-10-28T06:35:45.212Z,247.00
2023-10-28T06:36:20.139Z,247.00
2023-10-28T06:36:57.299Z,246.67
2023-10-28T06:37:30.876Z,246.00
2023-10-28T06:38:04.404Z,246.00
2023-10-28T06:38:38.125Z,247.00
2023-10-28T06:39:12.407Z,250.00
2023-10-28T06:39:49.307Z,251.33
2023-10-28T06:40:25.836Z,251.33
2023-10-28T06:41:00.116Z,250.67
2023-10-28T06:41:35.336Z,249.33
2023-10-28T06:42:09.263Z,252.67
2023-10-28T06:42:43.199Z,256.33
2023-10-28T06:43:16.879Z,256.00
2023-10-28T06:43:50.808Z,255.00
2023-10-28T06:44:24.500Z,254.33
2023-10-28T06:45:00.278Z,251.67
2023-10-28T06:45:35.208Z,251.00
2023-10-28T06:46:09.242Z,251.00
2023-10-28T06:46:42.786Z,251.00
2023-10-28T06:47:16.346Z,250.33
2023-10-28T06:47:51.749Z,248.67
2023-10-28T06:48:26.143Z,246.00
2023-10-28T06:49:01.031Z,248.33
2023-10-28T06:49:34.563Z,249.67
2023-10-28T06:50:08.846Z,247.00
2023-10-28T06:50:42.675Z,242.33
2023-10-28T06:51:16.338Z,238.00
2023-10-28T06:51:51.427Z,234.67
2023-10-28T06:52:26.267Z,231.33
2023-10-28T06:53:01.139Z,228.00
2023-10-28T06:53:34.736Z,225.33
2023-10-28T06:54:08.123Z,222.67
2023-10-28T06:54:41.872Z,221.33
2023-10-28T06:55:16.494Z,221.00
2023-10-28T06:55:51.180Z,220.33
2023-10-28T06:56:26.596Z,220.00
2023-10-28T06:57:00.231Z,221.67
2023-10-28T06:57:33.598Z,218.00
2023-10-28T06:58:07.093Z,211.00
2023-10-28T06:58:42.798Z,212.00
2023-10-28T06:59:16.979Z,211.00
2023-10-28T06:59:51.005Z,210.67
2023-10-28T07:00:30.404Z,211.00
2023-10-28T07:01:05.522Z,212.33
2023-10-28T07:01:40.113Z,212.00
2023-10-28T07:02:14.283Z,212.67
2023-10-28T07:02:47.996Z,213.67
2023-10-28T07:03:21.738Z,213.67
2023-10-28T07:03:55.145Z,212.67
2023-10-28T07:04:30.577Z,211.00
2023-10-28T07:05:05.076Z,212.00
2023-10-28T07:05:42.649Z,211.33
2023-10-28T07:06:16.784Z,211.67
2023-10-28T07:06:53.347Z,212.67
2023-10-28T07:07:26.696Z,213.00
2023-10-28T07:08:00.351Z,214.00
2023-10-28T07:08:33.717Z,214.67
2023-10-28T07:09:07.208Z,215.00
2023-10-28T07:09:44.298Z,215.00
2023-10-28T07:10:17.694Z,215.00
2023-10-28T07:10:51.278Z,215.00
2023-10-28T07:11:25.237Z,215.00
2023-10-28T07:11:58.683Z,215.67
2023-10-28T07:12:32.204Z,216.67
2023-10-28T07:13:05.509Z,218.00